createdAt,value
2018-07-23T00:01:15.531Z,16.80
2018-07-23T00:03:43.818Z,16.80
2018-07-23T00:06:12.150Z,16.80
2018-07-23T00:08:40.431Z,16.70
2018-07-23T00:11:08.841Z,16.70
2018-07-23T00:13:37.143Z,16.70
2018-07-23T00:16:05.473Z,16.70
2018-07-23T00:18:33.746Z,16.60
2018-07-23T00:21:02.013Z,16.60
2018-07-23T00:23:30.309Z,16.60
2018-07-23T00:25:58.578Z,16.60
2018-07-23T00:28:26.885Z,16.70
2018-07-23T00:30:55.158Z,16.60
2018-07-23T00:33:23.466Z,16.60
2018-07-23T00:35:51.759Z,16.60
2018-07-23T00:40:48.149Z,16.60
2018-07-23T00:43:16.433Z,16.50
2018-07-23T00:45:44.722Z,16.50
2018-07-23T00:48:13.019Z,16.40
2018-07-23T00:50:41.329Z,16.40
2018-07-23T00:53:09.619Z,16.40
2018-07-23T00:55:37.906Z,16.40
2018-07-23T00:58:06.228Z,16.50
2018-07-23T01:00:34.534Z,16.50
2018-07-23T01:03:06.299Z,16.50
2018-07-23T01:05:36.352Z,16.50
2018-07-23T01:08:04.763Z,16.50
2018-07-23T01:10:33.087Z,16.50
2018-07-23T01:13:01.403Z,16.50
2018-07-23T01:15:29.691Z,16.40
2018-07-23T01:17:57.961Z,16.40
2018-07-23T01:20:26.234Z,16.40
2018-07-23T01:22:54.504Z,16.40
2018-07-23T01:25:22.796Z,16.40
2018-07-23T01:27:51.161Z,16.40
2018-07-23T01:30:19.453Z,16.30
2018-07-23T01:35:15.776Z,16.30
2018-07-23T01:37:44.061Z,16.30
2018-07-23T01:40:12.400Z,16.40
2018-07-23T01:42:40.682Z,16.40
2018-07-23T01:45:09.001Z,16.30
2018-07-23T01:47:37.339Z,16.30
2018-07-23T01:52:33.738Z,16.20
2018-07-23T01:55:02.081Z,16.20
2018-07-23T01:57:30.372Z,16.30
2018-07-23T01:59:58.647Z,16.30
2018-07-23T02:02:26.948Z,16.20
2018-07-23T02:04:55.347Z,16.20
2018-07-23T02:07:23.655Z,16.20
2018-07-23T02:09:51.953Z,16.20
2018-07-23T02:12:20.268Z,16.20
2018-07-23T02:14:48.544Z,16.20
2018-07-23T02:17:16.893Z,16.10
2018-07-23T02:19:45.205Z,16.10
2018-07-23T02:22:13.481Z,16.10
2018-07-23T02:24:41.804Z,16.00
2018-07-23T02:27:10.112Z,16.10
2018-07-23T02:29:38.394Z,16.10
2018-07-23T02:32:06.744Z,16.10
2018-07-23T02:34:35.016Z,16.10
2018-07-23T02:37:03.320Z,16.10
2018-07-23T02:39:31.590Z,16.10
2018-07-23T02:41:59.931Z,16.10
2018-07-23T02:44:28.236Z,16.00
2018-07-23T02:46:56.622Z,16.00
2018-07-23T02:49:24.941Z,16.00
2018-07-23T02:51:53.238Z,16.00
2018-07-23T02:54:21.581Z,16.00
2018-07-23T02:56:49.885Z,15.90
2018-07-23T02:59:18.213Z,15.90
2018-07-23T03:01:46.533Z,16.00
2018-07-23T03:04:14.973Z,15.90
2018-07-23T03:06:43.280Z,16.00
2018-07-23T03:09:11.603Z,15.90
2018-07-23T03:11:39.877Z,15.90
2018-07-23T03:14:08.196Z,15.90
2018-07-23T03:16:36.553Z,15.80
2018-07-23T03:19:04.890Z,15.80
2018-07-23T03:21:33.200Z,15.80
2018-07-23T03:24:01.505Z,15.80
2018-07-23T03:26:29.799Z,15.80
2018-07-23T03:28:58.082Z,15.80
2018-07-23T03:31:26.384Z,15.70
2018-07-23T03:33:54.653Z,15.70
2018-07-23T03:36:23.008Z,15.70
2018-07-23T03:38:51.304Z,15.70
2018-07-23T03:41:19.581Z,15.70
2018-07-23T03:43:47.941Z,15.70
2018-07-23T03:48:44.391Z,15.70
2018-07-23T03:53:40.735Z,15.70
2018-07-23T03:56:09.020Z,15.70
2018-07-23T03:58:37.340Z,15.70
2018-07-23T04:01:05.718Z,15.70
2018-07-23T04:03:34.053Z,15.80
2018-07-23T04:08:30.378Z,15.80
2018-07-23T04:10:58.661Z,15.90
2018-07-23T04:13:27.056Z,16.00
2018-07-23T04:15:55.369Z,16.10
2018-07-23T04:18:23.644Z,16.10
2018-07-23T04:20:51.946Z,16.20
2018-07-23T04:23:20.257Z,16.20
2018-07-23T04:25:48.536Z,16.20
2018-07-23T04:28:16.825Z,16.20
2018-07-23T04:30:45.124Z,16.30
2018-07-23T04:33:13.406Z,16.30
2018-07-23T04:35:41.727Z,16.30
2018-07-23T04:38:10.040Z,16.30
2018-07-23T04:40:38.356Z,16.30
2018-07-23T04:43:06.625Z,16.40
2018-07-23T04:45:34.931Z,16.40
2018-07-23T04:48:03.726Z,16.40
2018-07-23T04:50:32.046Z,16.50
2018-07-23T04:53:00.407Z,16.50
2018-07-23T04:55:28.706Z,16.50
2018-07-23T04:57:57.003Z,16.60
2018-07-23T05:00:25.332Z,16.80
2018-07-23T05:02:53.635Z,16.90
2018-07-23T05:05:21.944Z,17.00
2018-07-23T05:07:50.232Z,17.10
2018-07-23T05:10:18.685Z,17.10
2018-07-23T05:12:46.972Z,17.20
2018-07-23T05:15:15.291Z,17.20
2018-07-23T05:17:43.658Z,17.40
2018-07-23T05:20:11.948Z,17.40
2018-07-23T05:22:40.262Z,17.40
2018-07-23T05:25:08.584Z,17.50
2018-07-23T05:27:36.963Z,17.70
2018-07-23T05:30:05.499Z,17.80
2018-07-23T05:32:33.802Z,17.90
2018-07-23T05:35:02.553Z,18.00
2018-07-23T05:37:30.806Z,18.10
2018-07-23T05:39:59.105Z,18.30
2018-07-23T05:42:27.439Z,18.40
2018-07-23T05:44:55.989Z,18.50
2018-07-23T05:47:24.283Z,18.60
2018-07-23T05:49:52.627Z,18.80
2018-07-23T05:52:21.007Z,19.00
2018-07-23T05:54:49.319Z,19.10
2018-07-23T05:57:17.635Z,19.40
2018-07-23T06:06:32.285Z,19.80
2018-07-23T06:09:00.571Z,19.90
2018-07-23T06:11:28.909Z,20.00
2018-07-23T06:13:57.319Z,20.20
2018-07-23T06:16:25.658Z,20.60
2018-07-23T06:18:53.972Z,21.10
2018-07-23T06:21:22.381Z,21.60
2018-07-23T06:23:50.787Z,22.30
2018-07-23T06:26:19.129Z,22.30
2018-07-23T06:28:47.401Z,22.40
2018-07-23T06:31:15.725Z,22.50
2018-07-23T06:33:44.178Z,22.60
2018-07-23T06:36:12.528Z,22.60
2018-07-23T06:38:40.802Z,22.30
2018-07-23T06:41:09.089Z,22.20
2018-07-23T06:43:37.421Z,22.40
2018-07-23T06:46:05.744Z,22.10
2018-07-23T06:48:34.294Z,22.50
2018-07-23T06:51:02.651Z,23.00
2018-07-23T06:53:31.104Z,23.70
2018-07-23T06:55:59.511Z,24.20
2018-07-23T06:58:27.926Z,25.10
2018-07-23T07:00:56.265Z,26.20
2018-07-23T07:03:24.672Z,26.70
2018-07-23T07:05:53.043Z,27.20
2018-07-23T07:08:21.464Z,27.90
2018-07-23T07:10:49.820Z,29.10
2018-07-23T07:13:18.078Z,29.70
2018-07-23T07:15:46.359Z,29.80
2018-07-23T07:18:14.688Z,30.10
2018-07-23T07:20:42.997Z,30.20
2018-07-23T07:23:11.306Z,30.40
2018-07-23T07:25:39.638Z,30.20
2018-07-23T07:28:07.949Z,29.70
2018-07-23T07:30:36.278Z,28.70
2018-07-23T07:33:04.640Z,27.50
2018-07-23T07:35:32.915Z,26.80
2018-07-23T07:38:01.273Z,26.40
2018-07-23T07:40:29.524Z,26.50
2018-07-23T07:45:26.071Z,28.70
2018-07-23T07:47:54.411Z,30.00
2018-07-23T07:50:22.688Z,30.90
2018-07-23T07:52:51.020Z,31.50
2018-07-23T07:55:19.334Z,31.20
2018-07-23T07:57:47.644Z,31.10
2018-07-23T08:00:15.946Z,31.50
2018-07-23T08:02:44.204Z,31.20
2018-07-23T08:05:13.215Z,31.10
2018-07-23T08:07:41.515Z,30.20
2018-07-23T08:10:09.867Z,29.70
2018-07-23T08:12:38.253Z,30.20
2018-07-23T08:15:06.826Z,30.30
2018-07-23T08:17:35.140Z,30.60
2018-07-23T08:20:03.534Z,31.10
2018-07-23T08:22:31.823Z,31.60
2018-07-23T08:25:00.130Z,31.90
2018-07-23T08:27:28.390Z,32.20
2018-07-23T08:29:56.702Z,32.30
2018-07-23T08:32:25.007Z,32.40
2018-07-23T08:34:53.282Z,32.70
2018-07-23T08:37:21.602Z,32.80
2018-07-23T08:39:49.883Z,32.50
2018-07-23T08:42:18.267Z,32.20
2018-07-23T08:44:46.536Z,32.20
2018-07-23T08:47:14.827Z,32.40
2018-07-23T08:49:43.127Z,32.80
2018-07-23T08:52:11.478Z,32.80
2018-07-23T08:54:39.780Z,32.80
2018-07-23T08:57:08.066Z,33.00
2018-07-23T08:59:36.368Z,33.10
2018-07-23T09:02:04.685Z,32.80
2018-07-23T09:04:32.937Z,33.10
2018-07-23T09:07:01.237Z,33.10
2018-07-23T09:09:29.515Z,32.80
2018-07-23T09:14:25.850Z,32.10
2018-07-23T09:16:54.129Z,31.90
2018-07-23T09:19:22.398Z,31.80
2018-07-23T09:21:50.713Z,31.10
2018-07-23T09:24:19.081Z,29.80
2018-07-23T09:26:47.413Z,28.90
2018-07-23T09:29:15.982Z,28.10
2018-07-23T09:31:44.264Z,27.20
2018-07-23T09:34:12.559Z,26.60
2018-07-23T09:36:40.853Z,26.10
2018-07-23T09:39:09.785Z,25.60
2018-07-23T09:41:38.095Z,26.00
2018-07-23T09:44:06.803Z,26.10
2018-07-23T09:46:35.191Z,26.20
2018-07-23T09:49:03.469Z,26.00
2018-07-23T09:51:31.752Z,25.90
2018-07-23T09:54:00.061Z,25.80
2018-07-23T09:56:28.313Z,25.50
2018-07-23T09:58:56.631Z,25.50
2018-07-23T10:01:24.914Z,25.10
2018-07-23T10:03:53.208Z,24.90
2018-07-23T10:06:21.495Z,25.00
2018-07-23T10:08:49.793Z,25.10
2018-07-23T10:11:18.056Z,25.30
2018-07-23T10:13:46.376Z,25.00
2018-07-23T10:16:14.629Z,24.60
2018-07-23T10:18:42.948Z,24.60
2018-07-23T10:21:11.254Z,24.70
2018-07-23T10:23:39.526Z,24.80
2018-07-23T10:26:07.819Z,24.90
2018-07-23T10:31:04.123Z,24.80
2018-07-23T10:33:32.411Z,24.70
2018-07-23T10:36:00.710Z,24.80
2018-07-23T10:38:28.989Z,24.90
2018-07-23T10:40:57.270Z,24.90
2018-07-23T10:43:25.772Z,25.00
2018-07-23T10:45:54.049Z,25.20
2018-07-23T10:48:22.480Z,25.30
2018-07-23T10:50:50.791Z,25.40
2018-07-23T10:53:19.068Z,25.30
2018-07-23T10:55:47.430Z,25.30
2018-07-23T10:58:15.724Z,25.20
2018-07-23T11:00:44.016Z,25.20
2018-07-23T11:03:12.307Z,25.10
2018-07-23T11:05:40.584Z,25.10
2018-07-23T11:08:09.110Z,25.20
2018-07-23T11:10:37.361Z,25.20
2018-07-23T11:13:05.833Z,25.20
2018-07-23T11:15:34.107Z,25.20
2018-07-23T11:18:02.474Z,25.20
2018-07-23T11:20:30.772Z,25.40
2018-07-23T11:22:59.101Z,25.60
2018-07-23T11:25:41.449Z,25.80
2018-07-23T11:27:55.689Z,26.00
2018-07-23T11:30:24.013Z,25.90
2018-07-23T11:32:52.278Z,26.10
2018-07-23T11:37:48.577Z,26.10
2018-07-23T11:40:16.868Z,26.10
2018-07-23T11:42:45.142Z,26.00
2018-07-23T11:45:13.458Z,25.80
2018-07-23T11:47:41.741Z,25.60
2018-07-23T11:50:10.099Z,25.40
2018-07-23T11:52:38.604Z,25.40
2018-07-23T11:55:07.117Z,25.20
2018-07-23T11:57:35.393Z,25.10
2018-07-23T12:00:04.531Z,25.40
2018-07-23T12:02:32.968Z,25.30
2018-07-23T12:05:01.356Z,25.10
2018-07-23T12:07:29.626Z,25.00
2018-07-23T12:09:57.929Z,25.00
2018-07-23T12:12:26.199Z,25.10
2018-07-23T12:14:54.504Z,25.00
2018-07-23T12:17:22.826Z,25.00
2018-07-23T12:19:51.102Z,25.00
2018-07-23T12:22:19.414Z,25.00
2018-07-23T12:24:47.712Z,25.00
2018-07-23T12:27:16.013Z,25.00
2018-07-23T12:29:44.289Z,24.90
2018-07-23T12:32:12.661Z,25.00
2018-07-23T12:34:40.944Z,25.10
2018-07-23T12:37:09.263Z,25.20
2018-07-23T12:39:37.529Z,25.30
2018-07-23T12:42:05.874Z,25.30
2018-07-23T12:44:34.166Z,25.30
2018-07-23T12:47:02.684Z,25.50
2018-07-23T12:49:30.910Z,25.70
2018-07-23T12:51:59.185Z,25.90
2018-07-23T12:54:27.486Z,26.10
2018-07-23T13:01:32.546Z,26.20
2018-07-23T13:04:00.803Z,25.40
2018-07-23T13:06:29.091Z,25.20
2018-07-23T13:08:57.363Z,25.00
2018-07-23T13:11:25.675Z,25.00
2018-07-23T13:13:56.950Z,24.90
2018-07-23T13:18:53.244Z,25.00
2018-07-23T13:21:21.544Z,25.20
2018-07-23T13:23:49.828Z,25.20
2018-07-23T13:26:18.120Z,25.10
2018-07-23T13:28:46.451Z,24.90
2018-07-23T13:31:14.709Z,24.80
2018-07-23T13:33:43.005Z,24.80
2018-07-23T13:36:11.282Z,24.80
2018-07-23T13:38:39.576Z,24.90
2018-07-23T13:41:07.937Z,25.00
2018-07-23T13:43:36.378Z,25.10
2018-07-23T13:46:04.667Z,25.30
2018-07-23T13:48:32.956Z,25.40
2018-07-23T13:51:01.314Z,25.50
2018-07-23T13:53:29.608Z,25.60
2018-07-23T13:55:57.930Z,25.40
2018-07-23T13:58:26.258Z,25.10
2018-07-23T14:00:54.654Z,25.00
2018-07-23T14:03:22.926Z,25.00
2018-07-23T14:05:51.286Z,25.00
2018-07-23T14:08:19.537Z,24.90
2018-07-23T14:10:47.857Z,24.80
2018-07-23T14:13:16.141Z,24.80
2018-07-23T14:15:44.476Z,24.80
2018-07-23T14:18:12.746Z,24.80
2018-07-23T14:20:41.046Z,24.90
2018-07-23T14:23:09.501Z,24.90
2018-07-23T14:25:37.823Z,24.80
2018-07-23T14:28:06.135Z,24.90
2018-07-23T14:30:34.444Z,24.90
2018-07-23T14:33:02.803Z,25.00
2018-07-23T14:37:59.149Z,25.20
2018-07-23T14:40:27.491Z,25.40
2018-07-23T14:42:55.889Z,25.40
2018-07-23T14:45:24.162Z,25.40
2018-07-23T14:47:52.489Z,25.30
2018-07-23T14:50:20.787Z,25.40
2018-07-23T14:52:49.126Z,25.50
2018-07-23T14:55:17.436Z,25.70
2018-07-23T14:57:45.795Z,25.80
2018-07-23T15:00:14.245Z,25.90
2018-07-23T15:02:42.564Z,25.80
2018-07-23T15:05:10.933Z,25.80
2018-07-23T15:07:39.230Z,25.80
2018-07-23T15:10:07.603Z,25.80
2018-07-23T15:12:35.937Z,25.90
2018-07-23T15:15:04.352Z,26.00
2018-07-23T15:17:32.634Z,26.00
2018-07-23T15:20:00.913Z,26.10
2018-07-23T15:22:29.256Z,26.00
2018-07-23T15:24:57.579Z,25.80
2018-07-23T15:27:26.058Z,25.70
2018-07-23T15:29:54.361Z,25.60
2018-07-23T15:32:22.678Z,25.40
2018-07-23T15:34:50.980Z,25.30
2018-07-23T15:37:19.267Z,25.30
2018-07-23T15:39:47.560Z,25.20
2018-07-23T15:42:15.845Z,25.20
2018-07-23T15:47:12.207Z,25.10
2018-07-23T15:49:40.483Z,25.00
2018-07-23T15:52:08.760Z,25.00
2018-07-23T15:54:37.140Z,24.90
2018-07-23T15:57:05.494Z,24.80
2018-07-23T15:59:33.980Z,24.70
2018-07-23T16:02:02.266Z,24.70
2018-07-23T16:04:30.633Z,24.70
2018-07-23T16:09:27.019Z,24.50
2018-07-23T16:11:55.332Z,24.50
2018-07-23T16:14:23.668Z,24.50
2018-07-23T16:16:51.962Z,24.50
2018-07-23T16:19:20.271Z,24.50
2018-07-23T16:21:48.567Z,24.60
2018-07-23T16:24:16.894Z,24.60
2018-07-23T16:26:45.201Z,24.60
2018-07-23T16:29:13.494Z,24.60
2018-07-23T16:31:41.760Z,24.60
2018-07-23T16:34:10.059Z,24.70
2018-07-23T16:36:38.349Z,24.70
2018-07-23T16:39:09.334Z,24.90
2018-07-23T16:41:37.638Z,25.00
2018-07-23T16:44:06.478Z,25.00
2018-07-23T16:46:34.771Z,25.10
2018-07-23T16:49:03.046Z,25.20
2018-07-23T16:51:31.504Z,25.20
2018-07-23T16:53:59.956Z,25.30
2018-07-23T16:56:28.280Z,25.40
2018-07-23T16:58:56.580Z,25.40
2018-07-23T17:01:24.840Z,25.50
2018-07-23T17:03:53.229Z,25.60
2018-07-23T17:06:21.568Z,25.60
2018-07-23T17:08:49.863Z,25.60
2018-07-23T17:11:18.200Z,25.60
2018-07-23T17:13:46.481Z,25.50
2018-07-23T17:16:14.932Z,25.50
2018-07-23T17:18:43.260Z,25.40
2018-07-23T17:21:12.149Z,25.50
2018-07-23T17:23:40.505Z,25.40
2018-07-23T17:26:08.802Z,25.30
2018-07-23T17:28:37.108Z,25.20
2018-07-23T17:31:05.443Z,25.20
2018-07-23T17:33:33.770Z,25.10
2018-07-23T17:36:02.088Z,25.10
2018-07-23T17:38:30.403Z,25.00
2018-07-23T17:40:58.731Z,25.00
2018-07-23T17:43:27.080Z,25.00
2018-07-23T17:45:55.514Z,25.00
2018-07-23T17:48:23.948Z,25.00
2018-07-23T17:50:52.258Z,25.00
2018-07-23T17:53:20.600Z,24.90
2018-07-23T17:55:49.011Z,24.80
2018-07-23T17:58:17.288Z,24.70
2018-07-23T18:00:45.596Z,24.50
2018-07-23T18:03:13.892Z,24.40
2018-07-23T18:05:42.258Z,24.40
2018-07-23T18:08:10.570Z,24.20
2018-07-23T18:10:38.868Z,24.10
2018-07-23T18:13:07.766Z,24.00
2018-07-23T18:15:36.119Z,23.90
2018-07-23T18:18:04.411Z,23.80
2018-07-23T18:20:32.724Z,23.80
2018-07-23T18:23:01.052Z,23.70
2018-07-23T18:25:29.364Z,23.60
2018-07-23T18:27:57.665Z,23.60
2018-07-23T18:30:25.985Z,23.60
2018-07-23T18:32:54.286Z,23.60
2018-07-23T18:35:22.572Z,23.60
2018-07-23T18:37:51.001Z,23.50
2018-07-23T18:40:19.306Z,23.50
2018-07-23T18:42:47.715Z,23.40
2018-07-23T18:45:16.020Z,23.30
2018-07-23T18:47:44.339Z,23.30
2018-07-23T18:50:12.770Z,23.10
2018-07-23T18:52:41.149Z,23.00
2018-07-23T18:55:09.498Z,23.00
2018-07-23T18:57:37.821Z,22.90
2018-07-23T19:00:06.405Z,22.80
2018-07-23T19:02:34.754Z,22.80
2018-07-23T19:05:03.074Z,22.70
2018-07-23T19:07:31.384Z,22.60
2018-07-23T19:09:59.664Z,22.50
2018-07-23T19:12:28.054Z,22.20
2018-07-23T19:14:56.531Z,22.10
2018-07-23T19:17:24.923Z,21.90
2018-07-23T19:19:53.245Z,21.70
2018-07-23T19:22:21.628Z,21.60
2018-07-23T19:24:50.038Z,21.50
2018-07-23T19:27:18.447Z,21.30
2018-07-23T19:29:46.829Z,21.10
2018-07-23T19:32:15.286Z,21.00
2018-07-23T19:34:43.709Z,20.90
2018-07-23T19:37:12.096Z,20.80
2018-07-23T19:39:40.420Z,20.80
2018-07-23T19:42:08.919Z,20.70
2018-07-23T19:44:37.203Z,20.70
2018-07-23T19:47:05.612Z,20.60
2018-07-23T19:49:33.980Z,20.40
2018-07-23T19:52:02.289Z,20.30
2018-07-23T19:54:30.813Z,20.10
2018-07-23T19:56:59.186Z,20.00
2018-07-23T19:59:27.505Z,19.90
2018-07-23T20:01:55.902Z,19.80
2018-07-23T20:04:24.175Z,19.70
2018-07-23T20:06:52.592Z,19.70
2018-07-23T20:09:20.930Z,19.60
2018-07-23T20:11:49.212Z,19.50
2018-07-23T20:14:17.558Z,19.40
2018-07-23T20:16:50.842Z,19.30
2018-07-23T20:19:19.326Z,19.10
2018-07-23T20:24:15.753Z,18.80
2018-07-23T20:26:44.106Z,18.70
2018-07-23T20:29:12.432Z,18.70
2018-07-23T20:31:40.708Z,18.70
2018-07-23T20:34:09.032Z,18.60
2018-07-23T20:36:37.344Z,18.60
2018-07-23T20:39:07.130Z,18.50
2018-07-23T20:41:35.532Z,18.50
2018-07-23T20:44:03.871Z,18.50
2018-07-23T20:46:32.268Z,18.40
2018-07-23T20:49:00.608Z,18.40
2018-07-23T20:51:29.089Z,18.40
2018-07-23T20:53:57.460Z,18.40
2018-07-23T20:56:25.827Z,18.30
2018-07-23T20:58:54.213Z,18.20
2018-07-23T21:01:22.644Z,18.10
2018-07-23T21:03:51.046Z,18.00
2018-07-23T21:06:19.331Z,17.90
2018-07-23T21:08:47.594Z,17.90
2018-07-23T21:11:16.001Z,17.90
2018-07-23T21:13:44.263Z,18.00
2018-07-23T21:16:12.546Z,18.00
2018-07-23T21:18:40.831Z,17.90
2018-07-23T21:21:09.118Z,17.80
2018-07-23T21:23:37.498Z,17.70
2018-07-23T21:26:06.052Z,17.60
2018-07-23T21:31:02.490Z,17.40
2018-07-23T21:33:30.794Z,17.40
2018-07-23T21:35:59.159Z,17.50
2018-07-23T21:38:27.443Z,17.50
2018-07-23T21:40:55.738Z,17.50
2018-07-23T21:43:24.089Z,17.50
2018-07-23T21:45:52.384Z,17.50
2018-07-23T21:48:21.102Z,17.50
2018-07-23T21:50:49.421Z,17.40
2018-07-23T21:55:45.776Z,17.20
2018-07-23T21:58:14.068Z,17.10
2018-07-23T22:00:42.550Z,17.00
2018-07-23T22:03:10.760Z,17.00
2018-07-23T22:05:39.898Z,17.00
2018-07-23T22:08:08.257Z,16.90
2018-07-23T22:13:04.727Z,16.70
2018-07-23T22:15:33.000Z,16.60
2018-07-23T22:18:01.294Z,16.60
2018-07-23T22:20:29.568Z,16.60
2018-07-23T22:22:57.905Z,16.50
2018-07-23T22:25:26.204Z,16.50
2018-07-23T22:27:54.512Z,16.50
2018-07-23T22:30:22.830Z,16.40
2018-07-23T22:32:51.114Z,16.40
2018-07-23T22:35:19.466Z,16.30
2018-07-23T22:37:47.805Z,16.30
2018-07-23T22:40:16.081Z,16.30
2018-07-23T22:42:44.614Z,16.20
2018-07-23T22:45:12.898Z,16.20
2018-07-23T22:47:41.189Z,16.10
2018-07-23T22:50:09.530Z,16.10
2018-07-23T22:52:37.843Z,16.10
2018-07-23T22:55:06.234Z,16.10
2018-07-23T22:57:34.571Z,16.00
2018-07-23T23:00:02.841Z,16.10
2018-07-23T23:02:31.126Z,16.00
2018-07-23T23:04:59.421Z,16.00
2018-07-23T23:07:27.814Z,16.00
2018-07-23T23:09:56.118Z,16.00
2018-07-23T23:12:24.375Z,15.90
2018-07-23T23:14:52.745Z,15.80
2018-07-23T23:17:21.060Z,15.80
2018-07-23T23:19:49.322Z,15.80
2018-07-23T23:22:17.702Z,15.70
2018-07-23T23:24:45.967Z,15.60
2018-07-23T23:27:14.284Z,15.60
2018-07-23T23:29:42.596Z,15.50
2018-07-23T23:32:10.966Z,15.50
2018-07-23T23:34:39.280Z,15.40
2018-07-23T23:37:07.553Z,15.40
2018-07-23T23:39:35.844Z,15.40
2018-07-23T23:42:04.110Z,15.40
2018-07-23T23:44:32.477Z,15.40
2018-07-23T23:47:00.738Z,15.30
2018-07-23T23:49:29.047Z,15.40
2018-07-23T23:51:57.315Z,15.40
2018-07-23T23:54:25.568Z,15.30
2018-07-23T23:56:53.877Z,15.30
2018-07-23T23:59:22.196Z,15.30
